sensor_id;sensor_type;location;lat;lon;timestamp;pressure;altitude;pressure_sealevel;temperature;humidity
51297;BME280;37380;45.186;9.792;2023-04-06T00:00:47;101111.94;;;3.25;58.47
51297;BME280;37380;45.186;9.792;2023-04-06T00:03:15;101393.69;;;4.72;58.60
51297;BME280;37380;45.186;9.792;2023-04-06T00:05:42;101290.09;;;4.09;58.30
51297;BME280;37380;45.186;9.792;2023-04-06T00:08:09;101410.69;;;4.69;57.80
51297;BME280;37380;45.186;9.792;2023-04-06T00:10:36;101258.72;;;3.79;57.17
51297;BME280;37380;45.186;9.792;2023-04-06T00:13:04;101255.75;;;3.86;55.98
51297;BME280;37380;45.186;9.792;2023-04-06T00:15:32;101389.19;;;4.95;53.81
51297;BME280;37380;45.186;9.792;2023-04-06T00:17:59;101252.38;;;3.99;54.71
51297;BME280;37380;45.186;9.792;2023-04-06T00:20:33;101348.22;;;4.51;54.62
51297;BME280;37380;45.186;9.792;2023-04-06T00:23:34;101215.84;;;3.70;55.80
51297;BME280;37380;45.186;9.792;2023-04-06T00:26:28;101372.00;;;4.59;55.88
51297;BME280;37380;45.186;9.792;2023-04-06T00:28:55;101396.75;;;4.67;55.89
51297;BME280;37380;45.186;9.792;2023-04-06T00:31:22;101380.00;;;4.37;54.91
51297;BME280;37380;45.186;9.792;2023-04-06T00:33:50;101184.72;;;3.08;55.58
51297;BME280;37380;45.186;9.792;2023-04-06T00:36:17;101274.47;;;3.71;55.87
51297;BME280;37380;45.186;9.792;2023-04-06T00:38:44;101306.38;;;3.71;56.65
51297;BME280;37380;45.186;9.792;2023-04-06T00:41:13;101393.47;;;4.32;57.38
51297;BME280;37380;45.186;9.792;2023-04-06T00:43:47;101284.84;;;3.59;59.69
51297;BME280;37380;45.186;9.792;2023-04-06T00:46:48;101401.00;;;3.93;62.30
51297;BME280;37380;45.186;9.792;2023-04-06T00:49:43;101322.13;;;3.51;62.82
51297;BME280;37380;45.186;9.792;2023-04-06T00:52:11;101384.22;;;3.99;61.73
51297;BME280;37380;45.186;9.792;2023-04-06T00:54:38;101254.88;;;3.26;61.69
51297;BME280;37380;45.186;9.792;2023-04-06T00:57:07;101370.03;;;4.06;62.04
51297;BME280;37380;45.186;9.792;2023-04-06T00:59:34;101152.44;;;2.78;62.13
51297;BME280;37380;45.186;9.792;2023-04-06T01:02:03;101385.69;;;4.07;61.71
51297;BME280;37380;45.186;9.792;2023-04-06T01:04:37;101389.16;;;4.08;62.33
51297;BME280;37380;45.186;9.792;2023-04-06T01:07:09;101365.03;;;3.96;60.95
51297;BME280;37380;45.186;9.792;2023-04-06T01:09:44;101366.47;;;3.92;61.27
51297;BME280;37380;45.186;9.792;2023-04-06T01:12:18;101319.19;;;3.81;61.14
51297;BME280;37380;45.186;9.792;2023-04-06T01:14:46;101346.00;;;3.95;60.33
51297;BME280;37380;45.186;9.792;2023-04-06T01:17:14;101401.25;;;4.32;60.77
51297;BME280;37380;45.186;9.792;2023-04-06T01:19:48;101371.03;;;4.20;61.04
51297;BME280;37380;45.186;9.792;2023-04-06T01:22:49;101321.16;;;3.97;61.56
51297;BME280;37380;45.186;9.792;2023-04-06T01:25:49;101348.94;;;4.00;61.89
51297;BME280;37380;45.186;9.792;2023-04-06T01:28:16;101355.34;;;4.05;62.30
51297;BME280;37380;45.186;9.792;2023-04-06T01:30:58;101210.97;;;3.14;62.93
51297;BME280;37380;45.186;9.792;2023-04-06T01:33:41;101308.91;;;3.58;64.08
51297;BME280;37380;45.186;9.792;2023-04-06T01:36:12;101266.78;;;3.24;64.74
51297;BME280;37380;45.186;9.792;2023-04-06T01:38:39;101372.66;;;3.82;65.73
51297;BME280;37380;45.186;9.792;2023-04-06T01:41:08;101382.31;;;3.97;65.57
51297;BME280;37380;45.186;9.792;2023-04-06T01:43:53;101367.63;;;3.96;64.61
51297;BME280;37380;45.186;9.792;2023-04-06T01:46:47;101346.03;;;3.83;65.19
51297;BME280;37380;45.186;9.792;2023-04-06T01:49:18;101325.25;;;3.82;64.94
51297;BME280;37380;45.186;9.792;2023-04-06T01:51:49;101371.06;;;4.08;65.24
51297;BME280;37380;45.186;9.792;2023-04-06T01:54:17;101308.41;;;3.63;66.05
51297;BME280;37380;45.186;9.792;2023-04-06T01:56:54;101368.97;;;3.91;66.25
51297;BME280;37380;45.186;9.792;2023-04-06T01:59:31;101315.84;;;3.35;67.02
51297;BME280;37380;45.186;9.792;2023-04-06T02:02:03;101247.34;;;2.93;67.62
51297;BME280;37380;45.186;9.792;2023-04-06T02:04:33;101267.56;;;2.87;68.12
51297;BME280;37380;45.186;9.792;2023-04-06T02:07:08;101277.00;;;2.99;68.90
51297;BME280;37380;45.186;9.792;2023-04-06T02:09:35;101388.72;;;3.55;69.33
51297;BME280;37380;45.186;9.792;2023-04-06T02:12:05;101392.91;;;3.65;69.09
51297;BME280;37380;45.186;9.792;2023-04-06T02:14:34;101269.69;;;2.81;69.06
51297;BME280;37380;45.186;9.792;2023-04-06T02:17:01;101304.63;;;3.00;70.06
51297;BME280;37380;45.186;9.792;2023-04-06T02:19:35;101369.00;;;3.44;70.29
51297;BME280;37380;45.186;9.792;2023-04-06T02:22:36;101328.19;;;3.16;70.51
51297;BME280;37380;45.186;9.792;2023-04-06T02:25:30;101273.94;;;2.81;71.21
51297;BME280;37380;45.186;9.792;2023-04-06T02:27:57;101387.28;;;3.47;71.18
51297;BME280;37380;45.186;9.792;2023-04-06T02:30:24;101387.41;;;3.48;71.79
51297;BME280;37380;45.186;9.792;2023-04-06T02:32:51;101273.59;;;2.76;71.65
51297;BME280;37380;45.186;9.792;2023-04-06T02:35:18;101330.53;;;3.01;71.50
51297;BME280;37380;45.186;9.792;2023-04-06T02:37:51;101241.03;;;2.55;72.30
51297;BME280;37380;45.186;9.792;2023-04-06T02:40:19;101356.16;;;3.22;72.81
51297;BME280;37380;45.186;9.792;2023-04-06T02:42:46;101393.13;;;3.32;72.74
51297;BME280;37380;45.186;9.792;2023-04-06T02:45:23;101376.72;;;3.32;72.51
51297;BME280;37380;45.186;9.792;2023-04-06T02:48:05;101255.88;;;2.69;72.12
51297;BME280;37380;45.186;9.792;2023-04-06T02:50:32;101346.41;;;3.17;72.85
51297;BME280;37380;45.186;9.792;2023-04-06T02:53:03;101372.25;;;3.41;72.74
51297;BME280;37380;45.186;9.792;2023-04-06T02:55:31;101183.91;;;2.26;72.69
51297;BME280;37380;45.186;9.792;2023-04-06T02:57:58;101219.72;;;2.45;73.20
51297;BME280;37380;45.186;9.792;2023-04-06T03:00:30;101343.47;;;3.25;73.10
51297;BME280;37380;45.186;9.792;2023-04-06T03:02:57;101313.59;;;3.05;72.55
51297;BME280;37380;45.186;9.792;2023-04-06T03:05:26;101379.88;;;3.39;72.74
51297;BME280;37380;45.186;9.792;2023-04-06T03:07:53;101357.41;;;3.38;73.12
51297;BME280;37380;45.186;9.792;2023-04-06T03:10:30;101328.19;;;3.51;71.47
51297;BME280;37380;45.186;9.792;2023-04-06T03:12:57;101286.88;;;3.16;71.40
51297;BME280;37380;45.186;9.792;2023-04-06T03:15:39;101314.31;;;3.37;72.19
51297;BME280;37380;45.186;9.792;2023-04-06T03:18:13;101373.72;;;3.61;72.37
51297;BME280;37380;45.186;9.792;2023-04-06T03:20:51;101372.91;;;3.62;72.65
51297;BME280;37380;45.186;9.792;2023-04-06T03:24:00;101349.53;;;3.37;72.79
51297;BME280;37380;45.186;9.792;2023-04-06T03:26:54;101371.56;;;3.44;74.50
51297;BME280;37380;45.186;9.792;2023-04-06T03:29:23;101319.78;;;3.18;73.65
51297;BME280;37380;45.186;9.792;2023-04-06T03:31:50;101234.19;;;2.55;73.41
51297;BME280;37380;45.186;9.792;2023-04-06T03:34:31;101206.66;;;2.32;73.90
51297;BME280;37380;45.186;9.792;2023-04-06T03:36:58;101345.13;;;3.01;74.82
51297;BME280;37380;45.186;9.792;2023-04-06T03:39:40;101377.63;;;3.56;73.51
51297;BME280;37380;45.186;9.792;2023-04-06T03:42:09;101268.91;;;2.82;71.91
51297;BME280;37380;45.186;9.792;2023-04-06T03:44:41;101324.81;;;3.17;72.61
51297;BME280;37380;45.186;9.792;2023-04-06T03:47:08;101263.75;;;2.82;72.63
51297;BME280;37380;45.186;9.792;2023-04-06T03:49:35;101223.53;;;2.39;73.93
51297;BME280;37380;45.186;9.792;2023-04-06T03:52:06;101292.63;;;2.55;74.81
51297;BME280;37380;45.186;9.792;2023-04-06T03:54:33;101387.50;;;3.26;75.22
51297;BME280;37380;45.186;9.792;2023-04-06T03:57:01;101342.78;;;3.04;74.86
51297;BME280;37380;45.186;9.792;2023-04-06T03:59:28;101375.00;;;3.09;76.03
51297;BME280;37380;45.186;9.792;2023-04-06T04:02:02;101270.84;;;2.17;76.18
51297;BME280;37380;45.186;9.792;2023-04-06T04:04:56;101391.31;;;2.74;77.63
51297;BME280;37380;45.186;9.792;2023-04-06T04:07:23;101187.47;;;1.39;77.60
51297;BME280;37380;45.186;9.792;2023-04-06T04:09:51;101353.34;;;2.39;77.76
51297;BME280;37380;45.186;9.792;2023-04-06T04:12:18;101388.16;;;2.78;76.80
51297;BME280;37380;45.186;9.792;2023-04-06T04:14:45;101361.06;;;2.61;76.93
51297;BME280;37380;45.186;9.792;2023-04-06T04:17:12;101419.91;;;2.77;78.60
51297;BME280;37380;45.186;9.792;2023-04-06T04:19:46;101401.69;;;2.64;78.83
51297;BME280;37380;45.186;9.792;2023-04-06T04:22:47;101385.41;;;2.21;80.28
51297;BME280;37380;45.186;9.792;2023-04-06T04:25:48;101402.53;;;2.31;81.30
51297;BME280;37380;45.186;9.792;2023-04-06T04:28:42;101408.16;;;2.15;82.47
51297;BME280;37380;45.186;9.792;2023-04-06T04:31:09;101353.19;;;1.72;84.39
51297;BME280;37380;45.186;9.792;2023-04-06T04:33:38;101364.75;;;1.77;85.20
51297;BME280;37380;45.186;9.792;2023-04-06T04:36:11;101406.34;;;2.14;87.02
51297;BME280;37380;45.186;9.792;2023-04-06T04:38:41;101393.50;;;2.36;86.50
51297;BME280;37380;45.186;9.792;2023-04-06T04:41:09;101312.91;;;1.62;84.11
51297;BME280;37380;45.186;9.792;2023-04-06T04:43:40;101379.63;;;2.01;85.02
51297;BME280;37380;45.186;9.792;2023-04-06T04:46:07;101315.25;;;1.59;84.82
51297;BME280;37380;45.186;9.792;2023-04-06T04:48:42;101377.78;;;2.00;85.31
51297;BME280;37380;45.186;9.792;2023-04-06T04:51:16;101255.81;;;1.13;85.21
51297;BME280;37380;45.186;9.792;2023-04-06T04:54:19;101396.88;;;2.02;85.58
51297;BME280;37380;45.186;9.792;2023-04-06T04:56:46;101318.66;;;1.38;85.89
51297;BME280;37380;45.186;9.792;2023-04-06T04:59:21;101324.88;;;1.19;86.22
51297;BME280;37380;45.186;9.792;2023-04-06T05:02:06;101392.28;;;1.88;85.64
51297;BME280;37380;45.186;9.792;2023-04-06T05:05:13;101407.06;;;2.01;86.75
51297;BME280;37380;45.186;9.792;2023-04-06T05:07:41;101411.44;;;2.24;86.92
51297;BME280;37380;45.186;9.792;2023-04-06T05:10:14;101376.63;;;2.29;86.01
51297;BME280;37380;45.186;9.792;2023-04-06T05:12:51;101323.19;;;1.94;85.30
51297;BME280;37380;45.186;9.792;2023-04-06T05:15:18;101363.19;;;2.33;85.64
51297;BME280;37380;45.186;9.792;2023-04-06T05:17:50;101344.00;;;2.30;85.24
51297;BME280;37380;45.186;9.792;2023-04-06T05:20:29;101400.50;;;3.16;81.98
51297;BME280;37380;45.186;9.792;2023-04-06T05:23:23;101380.09;;;3.43;79.00
51297;BME280;37380;45.186;9.792;2023-04-06T05:25:51;101291.81;;;3.36;76.59
51297;BME280;37380;45.186;9.792;2023-04-06T05:28:22;101373.00;;;4.36;74.74
51297;BME280;37380;45.186;9.792;2023-04-06T05:30:49;101409.03;;;4.83;70.65
51297;BME280;37380;45.186;9.792;2023-04-06T05:33:16;101259.09;;;4.47;68.10
51297;BME280;37380;45.186;9.792;2023-04-06T05:36:13;101362.13;;;5.16;66.53
51297;BME280;37380;45.186;9.792;2023-04-06T05:38:44;101415.31;;;6.16;63.54
51297;BME280;37380;45.186;9.792;2023-04-06T05:41:35;101387.59;;;6.15;62.74
51297;BME280;37380;45.186;9.792;2023-04-06T05:44:02;101371.47;;;6.34;61.57
51297;BME280;37380;45.186;9.792;2023-04-06T05:46:37;101385.88;;;6.29;63.02
51297;BME280;37380;45.186;9.792;2023-04-06T05:49:38;101338.38;;;6.88;58.93
51297;BME280;37380;45.186;9.792;2023-04-06T05:52:38;101421.94;;;7.38;56.24
51297;BME280;37380;45.186;9.792;2023-04-06T05:55:12;101410.22;;;7.30;55.99
51297;BME280;37380;45.186;9.792;2023-04-06T05:58:20;101441.00;;;8.44;53.33
51297;BME280;37380;45.186;9.792;2023-04-06T06:01:00;101314.72;;;8.37;50.64
51297;BME280;37380;45.186;9.792;2023-04-06T06:03:55;101452.72;;;8.21;51.96
51297;BME280;37380;45.186;9.792;2023-04-06T06:06:27;101461.41;;;7.61;53.84
51297;BME280;37380;45.186;9.792;2023-04-06T06:09:12;101371.50;;;6.77;55.92
51297;BME280;37380;45.186;9.792;2023-04-06T06:11:46;101385.19;;;7.17;52.68
51297;BME280;37380;45.186;9.792;2023-04-06T06:14:15;101312.75;;;6.36;52.56
51297;BME280;37380;45.186;9.792;2023-04-06T06:16:45;101370.38;;;6.30;55.50
51297;BME280;37380;45.186;9.792;2023-04-06T06:19:14;101447.25;;;6.70;55.21
51297;BME280;37380;45.186;9.792;2023-04-06T06:21:50;101408.16;;;6.53;55.87
51297;BME280;37380;45.186;9.792;2023-04-06T06:24:55;101345.31;;;7.02;54.67
51297;BME280;37380;45.186;9.792;2023-04-06T06:27:51;101461.31;;;8.82;53.60
51297;BME280;37380;45.186;9.792;2023-04-06T06:30:19;101454.53;;;9.69;49.50
51297;BME280;37380;45.186;9.792;2023-04-06T06:32:50;101401.59;;;9.54;46.61
51297;BME280;37380;45.186;9.792;2023-04-06T06:35:18;101412.28;;;8.75;49.73
51297;BME280;37380;45.186;9.792;2023-04-06T06:37:46;101439.28;;;9.95;48.06
51297;BME280;37380;45.186;9.792;2023-04-06T06:40:18;101383.03;;;9.66;47.21
51297;BME280;37380;45.186;9.792;2023-04-06T06:42:46;101442.56;;;10.45;46.13
51297;BME280;37380;45.186;9.792;2023-04-06T06:45:20;101319.94;;;9.92;50.82
51297;BME280;37380;45.186;9.792;2023-04-06T06:47:48;101401.78;;;11.47;46.96
51297;BME280;37380;45.186;9.792;2023-04-06T06:50:17;101371.19;;;11.67;46.02
51297;BME280;37380;45.186;9.792;2023-04-06T06:52:51;101436.41;;;12.48;43.20
51297;BME280;37380;45.186;9.792;2023-04-06T06:55:52;101430.28;;;12.47;42.25
51297;BME280;37380;45.186;9.792;2023-04-06T06:58:53;101466.59;;;13.29;42.79
51297;BME280;37380;45.186;9.792;2023-04-06T07:01:47;101395.91;;;11.94;43.73
51297;BME280;37380;45.186;9.792;2023-04-06T07:04:48;101473.91;;;12.02;41.43
51297;BME280;37380;45.186;9.792;2023-04-06T07:07:17;101444.34;;;11.85;40.60
51297;BME280;37380;45.186;9.792;2023-04-06T07:09:44;101462.56;;;12.03;41.62
51297;BME280;37380;45.186;9.792;2023-04-06T07:12:11;101468.66;;;12.45;40.24
51297;BME280;37380;45.186;9.792;2023-04-06T07:14:38;101492.97;;;10.79;42.01
51297;BME280;37380;45.186;9.792;2023-04-06T07:17:05;101436.41;;;11.01;42.83
51297;BME280;37380;45.186;9.792;2023-04-06T07:19:33;101445.69;;;10.37;42.47
51297;BME280;37380;45.186;9.792;2023-04-06T07:22:07;101422.34;;;10.60;44.12
51297;BME280;37380;45.186;9.792;2023-04-06T07:25:02;101366.47;;;9.47;45.39
51297;BME280;37380;45.186;9.792;2023-04-06T07:27:30;101487.97;;;11.23;45.62
51297;BME280;37380;45.186;9.792;2023-04-06T07:29:59;101339.53;;;11.19;40.20
51297;BME280;37380;45.186;9.792;2023-04-06T07:32:26;101475.00;;;10.14;43.30
51297;BME280;37380;45.186;9.792;2023-04-06T07:34:54;101251.09;;;9.53;41.83
51297;BME280;37380;45.186;9.792;2023-04-06T07:37:21;101438.47;;;11.48;39.56
51297;BME280;37380;45.186;9.792;2023-04-06T07:39:48;101495.50;;;12.62;40.45
51297;BME280;37380;45.186;9.792;2023-04-06T07:42:18;101437.28;;;10.62;42.90
51297;BME280;37380;45.186;9.792;2023-04-06T07:44:46;101488.44;;;11.54;41.69
51297;BME280;37380;45.186;9.792;2023-04-06T07:47:13;101395.84;;;10.33;43.63
51297;BME280;37380;45.186;9.792;2023-04-06T07:49:40;101363.06;;;9.48;46.97
51297;BME280;37380;45.186;9.792;2023-04-06T07:52:07;101377.03;;;9.33;47.76
51297;BME280;37380;45.186;9.792;2023-04-06T07:54:34;101447.97;;;9.25;48.58
51297;BME280;37380;45.186;9.792;2023-04-06T07:57:01;101410.41;;;10.10;46.36
51297;BME280;37380;45.186;9.792;2023-04-06T07:59:35;101455.91;;;10.70;46.99
51297;BME280;37380;45.186;9.792;2023-04-06T08:02:36;101448.38;;;11.55;42.13
51297;BME280;37380;45.186;9.792;2023-04-06T08:05:37;101415.91;;;12.15;39.25
51297;BME280;37380;45.186;9.792;2023-04-06T08:08:20;101348.31;;;11.63;41.24
51297;BME280;37380;45.186;9.792;2023-04-06T08:10:48;101480.91;;;13.15;42.50
51297;BME280;37380;45.186;9.792;2023-04-06T08:13:15;101441.09;;;13.03;39.92
51297;BME280;37380;45.186;9.792;2023-04-06T08:15:43;101354.97;;;12.65;34.48
51297;BME280;37380;45.186;9.792;2023-04-06T08:18:10;101335.78;;;11.33;36.90
51297;BME280;37380;45.186;9.792;2023-04-06T08:20:44;101470.81;;;12.12;39.97
51297;BME280;37380;45.186;9.792;2023-04-06T08:23:38;101427.53;;;12.21;35.45
51297;BME280;37380;45.186;9.792;2023-04-06T08:26:05;101488.69;;;11.01;38.12
51297;BME280;37380;45.186;9.792;2023-04-06T08:28:35;101436.06;;;11.33;37.40
51297;BME280;37380;45.186;9.792;2023-04-06T08:31:05;101341.63;;;11.06;33.93
51297;BME280;37380;45.186;9.792;2023-04-06T08:33:33;101464.69;;;11.29;36.90
51297;BME280;37380;45.186;9.792;2023-04-06T08:36:10;101360.41;;;11.17;37.67
51297;BME280;37380;45.186;9.792;2023-04-06T08:38:37;101322.19;;;11.21;35.67
51297;BME280;37380;45.186;9.792;2023-04-06T08:41:11;101434.59;;;11.19;38.91
51297;BME280;37380;45.186;9.792;2023-04-06T08:43:59;101469.91;;;11.09;37.82
51297;BME280;37380;45.186;9.792;2023-04-06T08:46:29;101372.09;;;11.88;34.80
51297;BME280;37380;45.186;9.792;2023-04-06T08:48:58;101471.31;;;12.69;37.09
51297;BME280;37380;45.186;9.792;2023-04-06T08:51:27;101435.44;;;12.68;37.05
51297;BME280;37380;45.186;9.792;2023-04-06T08:53:57;101215.97;;;11.92;37.27
51297;BME280;37380;45.186;9.792;2023-04-06T08:56:28;101380.91;;;13.57;34.59
51297;BME280;37380;45.186;9.792;2023-04-06T08:58:58;101464.53;;;14.24;35.01
51297;BME280;37380;45.186;9.792;2023-04-06T09:02:07;101285.50;;;12.30;37.22
51297;BME280;37380;45.186;9.792;2023-04-06T09:04:54;101384.47;;;12.15;36.93
51297;BME280;37380;45.186;9.792;2023-04-06T09:07:26;101280.75;;;11.52;36.97
51297;BME280;37380;45.186;9.792;2023-04-06T09:09:56;101392.56;;;12.43;37.54
51297;BME280;37380;45.186;9.792;2023-04-06T09:12:28;101301.50;;;12.38;37.28
51297;BME280;37380;45.186;9.792;2023-04-06T09:14:57;101446.63;;;14.13;35.93
51297;BME280;37380;45.186;9.792;2023-04-06T09:17:27;101416.06;;;14.15;36.05
51297;BME280;37380;45.186;9.792;2023-04-06T09:19:55;101179.13;;;12.61;33.47
51297;BME280;37380;45.186;9.792;2023-04-06T09:22:42;101376.44;;;13.54;34.96
51297;BME280;37380;45.186;9.792;2023-04-06T09:25:43;101450.72;;;14.03;33.15
51297;BME280;37380;45.186;9.792;2023-04-06T09:28:59;101406.97;;;12.77;30.77
51297;BME280;37380;45.186;9.792;2023-04-06T09:31:33;101204.97;;;10.69;34.31
51297;BME280;37380;45.186;9.792;2023-04-06T09:34:02;101236.88;;;11.90;32.43
51297;BME280;37380;45.186;9.792;2023-04-06T09:36:35;101180.59;;;12.78;37.73
51297;BME280;37380;45.186;9.792;2023-04-06T09:39:05;101279.59;;;13.92;32.01
51297;BME280;37380;45.186;9.792;2023-04-06T09:41:37;101364.84;;;14.31;33.83
51297;BME280;37380;45.186;9.792;2023-04-06T09:46:43;101342.84;;;14.57;33.15
51297;BME280;37380;45.186;9.792;2023-04-06T09:49:30;101388.88;;;15.03;33.28
51297;BME280;37380;45.186;9.792;2023-04-06T09:52:00;101313.72;;;15.14;30.70
51297;BME280;37380;45.186;9.792;2023-04-06T09:54:32;101442.78;;;15.82;30.93
51297;BME280;37380;45.186;9.792;2023-04-06T10:06:11;101376.00;;;16.20;31.52
51297;BME280;37380;45.186;9.792;2023-04-06T10:09:17;101388.97;;;16.50;29.00
51297;BME280;37380;45.186;9.792;2023-04-06T10:11:55;101414.44;;;16.89;30.02
51297;BME280;37380;45.186;9.792;2023-04-06T10:14:24;101172.84;;;14.58;28.17
51297;BME280;37380;45.186;9.792;2023-04-06T10:16:55;101329.94;;;15.66;29.99
51297;BME280;37380;45.186;9.792;2023-04-06T10:19:28;101422.22;;;16.43;30.82
51297;BME280;37380;45.186;9.792;2023-04-06T10:22:12;101241.84;;;15.93;29.71
51297;BME280;37380;45.186;9.792;2023-04-06T10:25:28;101262.38;;;16.07;32.21
51297;BME280;37380;45.186;9.792;2023-04-06T10:28:05;101395.78;;;16.81;31.18
51297;BME280;37380;45.186;9.792;2023-04-06T10:30:44;101344.22;;;16.55;32.44
51297;BME280;37380;45.186;9.792;2023-04-06T10:35:49;101392.94;;;16.29;32.69
51297;BME280;37380;45.186;9.792;2023-04-06T10:38:16;101294.25;;;16.20;30.61
51297;BME280;37380;45.186;9.792;2023-04-06T10:40:49;101409.44;;;17.04;29.10
51297;BME280;37380;45.186;9.792;2023-04-06T10:43:22;101196.41;;;15.63;29.48
51297;BME280;37380;45.186;9.792;2023-04-06T10:45:57;101377.47;;;16.87;32.98
51297;BME280;37380;45.186;9.792;2023-04-06T10:48:41;101390.78;;;16.93;35.73
51297;BME280;37380;45.186;9.792;2023-04-06T10:51:18;101338.38;;;17.15;31.22
51297;BME280;37380;45.186;9.792;2023-04-06T10:54:24;101350.69;;;16.70;28.39
51297;BME280;37380;45.186;9.792;2023-04-06T10:57:30;101374.88;;;14.44;28.33
51297;BME280;37380;45.186;9.792;2023-04-06T10:59:59;101334.50;;;15.38;29.03
51297;BME280;37380;45.186;9.792;2023-04-06T11:02:35;101262.94;;;13.92;27.97
51297;BME280;37380;45.186;9.792;2023-04-06T11:05:32;101361.56;;;13.28;29.56
51297;BME280;37380;45.186;9.792;2023-04-06T11:08:02;101356.66;;;12.65;30.82
51297;BME280;37380;45.186;9.792;2023-04-06T11:10:36;101314.03;;;12.71;30.86
51297;BME280;37380;45.186;9.792;2023-04-06T11:13:09;101292.72;;;13.36;30.93
51297;BME280;37380;45.186;9.792;2023-04-06T11:18:19;101176.28;;;13.63;29.90
51297;BME280;37380;45.186;9.792;2023-04-06T11:21:05;101194.25;;;14.40;30.85
51297;BME280;37380;45.186;9.792;2023-04-06T11:24:24;101317.63;;;15.67;32.32
51297;BME280;37380;45.186;9.792;2023-04-06T11:27:00;101164.88;;;13.32;33.68
51297;BME280;37380;45.186;9.792;2023-04-06T11:29:31;101142.38;;;14.67;30.09
51297;BME280;37380;45.186;9.792;2023-04-06T11:32:02;101152.63;;;14.91;29.67
51297;BME280;37380;45.186;9.792;2023-04-06T11:34:38;101266.28;;;15.11;30.04
51297;BME280;37380;45.186;9.792;2023-04-06T11:37:21;101161.44;;;15.31;30.01
51297;BME280;37380;45.186;9.792;2023-04-06T11:40:01;101324.38;;;16.75;31.05
51297;BME280;37380;45.186;9.792;2023-04-06T11:42:34;101256.25;;;16.52;33.98
51297;BME280;37380;45.186;9.792;2023-04-06T11:45:07;101301.09;;;16.98;30.65
51297;BME280;37380;45.186;9.792;2023-04-06T11:47:59;101259.84;;;16.58;29.37
51297;BME280;37380;45.186;9.792;2023-04-06T11:50:59;101266.09;;;16.61;29.14
51297;BME280;37380;45.186;9.792;2023-04-06T11:53:44;101286.03;;;16.04;29.56
51297;BME280;37380;45.186;9.792;2023-04-06T11:56:29;101261.16;;;15.92;30.50
51297;BME280;37380;45.186;9.792;2023-04-06T11:59:01;101174.84;;;14.03;29.03
51297;BME280;37380;45.186;9.792;2023-04-06T12:01:58;101192.78;;;13.88;29.29
51297;BME280;37380;45.186;9.792;2023-04-06T12:05:07;101250.06;;;13.71;30.47
51297;BME280;37380;45.186;9.792;2023-04-06T12:08:21;101277.38;;;13.76;31.00
51297;BME280;37380;45.186;9.792;2023-04-06T12:10:57;101220.97;;;13.93;30.39
51297;BME280;37380;45.186;9.792;2023-04-06T12:13:29;101173.50;;;13.03;30.45
51297;BME280;37380;45.186;9.792;2023-04-06T12:16:06;101224.31;;;13.30;30.79
51297;BME280;37380;45.186;9.792;2023-04-06T12:18:43;101077.69;;;12.58;30.63
51297;BME280;37380;45.186;9.792;2023-04-06T12:21:28;101241.91;;;13.34;31.10
51297;BME280;37380;45.186;9.792;2023-04-06T12:24:44;101079.63;;;12.64;30.81
51297;BME280;37380;45.186;9.792;2023-04-06T12:27:27;101222.00;;;13.70;30.70
51297;BME280;37380;45.186;9.792;2023-04-06T12:30:21;101216.00;;;14.34;35.39
51297;BME280;37380;45.186;9.792;2023-04-06T12:32:56;101247.00;;;14.78;33.70
51297;BME280;37380;45.186;9.792;2023-04-06T12:35:27;101243.97;;;14.02;30.22
51297;BME280;37380;45.186;9.792;2023-04-06T12:37:56;101156.34;;;14.32;32.26
51297;BME280;37380;45.186;9.792;2023-04-06T12:40:31;101088.53;;;13.55;30.06
51297;BME280;37380;45.186;9.792;2023-04-06T12:43:12;100979.50;;;12.76;31.23
51297;BME280;37380;45.186;9.792;2023-04-06T12:45:50;101087.59;;;13.83;33.12
51297;BME280;37380;45.186;9.792;2023-04-06T12:48:31;101202.88;;;15.02;32.85
51297;BME280;37380;45.186;9.792;2023-04-06T12:51:37;101216.00;;;15.38;33.20
51297;BME280;37380;45.186;9.792;2023-04-06T12:54:37;101218.75;;;15.81;35.32
51297;BME280;37380;45.186;9.792;2023-04-06T12:57:07;101089.09;;;15.14;34.66
51297;BME280;37380;45.186;9.792;2023-04-06T12:59:43;100947.50;;;14.19;36.05
51297;BME280;37380;45.186;9.792;2023-04-06T13:02:24;101119.66;;;15.07;30.63
51297;BME280;37380;45.186;9.792;2023-04-06T13:05:24;101217.44;;;14.88;27.74
51297;BME280;37380;45.186;9.792;2023-04-06T13:08:47;101187.41;;;14.15;28.37
51297;BME280;37380;45.186;9.792;2023-04-06T13:14:59;101135.25;;;14.29;29.95
51297;BME280;37380;45.186;9.792;2023-04-06T13:17:27;101179.56;;;14.16;29.10
51297;BME280;37380;45.186;9.792;2023-04-06T13:20:01;101184.66;;;14.10;29.36
51297;BME280;37380;45.186;9.792;2023-04-06T13:23:02;101184.47;;;14.67;29.90
51297;BME280;37380;45.186;9.792;2023-04-06T13:25:36;101118.75;;;13.71;28.99
51297;BME280;37380;45.186;9.792;2023-04-06T13:28:03;101041.41;;;13.28;29.28
51297;BME280;37380;45.186;9.792;2023-04-06T13:30:30;101142.25;;;13.96;29.05
51297;BME280;37380;45.186;9.792;2023-04-06T13:32:57;101143.41;;;14.73;32.88
51297;BME280;37380;45.186;9.792;2023-04-06T13:35:24;101167.41;;;14.52;28.68
51297;BME280;37380;45.186;9.792;2023-04-06T13:37:52;101121.13;;;14.58;28.45
51297;BME280;37380;45.186;9.792;2023-04-06T13:40:19;101134.22;;;14.57;27.99
51297;BME280;37380;45.186;9.792;2023-04-06T13:42:46;101146.63;;;14.97;29.05
51297;BME280;37380;45.186;9.792;2023-04-06T13:45:20;101160.97;;;15.10;28.34
51297;BME280;37380;45.186;9.792;2023-04-06T13:48:14;101132.31;;;15.24;28.97
51297;BME280;37380;45.186;9.792;2023-04-06T13:50:41;101081.91;;;15.05;27.85
51297;BME280;37380;45.186;9.792;2023-04-06T13:53:15;101135.25;;;14.98;27.89
51297;BME280;37380;45.186;9.792;2023-04-06T13:56:10;101127.66;;;14.41;28.49
51297;BME280;37380;45.186;9.792;2023-04-06T13:58:37;101111.59;;;14.30;28.39
51297;BME280;37380;45.186;9.792;2023-04-06T14:01:10;101092.31;;;14.30;28.49
51297;BME280;37380;45.186;9.792;2023-04-06T14:04:04;101105.19;;;14.52;28.59
51297;BME280;37380;45.186;9.792;2023-04-06T14:06:59;101044.09;;;13.94;28.59